PWSweather.com
Personal Weather Stations
Station Observations
THRCKWTHR1
Aveley, EssexGB RM154EL

AveleyEssexGB RM154EL

Lat: 51.5000552, Lon: 0.2501753000000235

Elevation: 98.5

Station Type: Oregon Scientific WMR88

Latest ConditionsUpdated 12:00:02 PM GMT Sunday, Oct 22, 2017
Currently Today's Max Today's Min Today's Average
Temperature 57.6°F14.2°C 58.1°F14.5°C 48.4°F9.1°C 52.3°F11.3°C
Dew Point 44.2°F6.8°C 49.5°F9.7°C 42.5°F5.8°C 45.8°F7.7°C
Winds 6.0 mph WNW9.7 kmh WNW 12.6 mph SSW20.3 kmh SSW - 5.4 mph 8.7 kmh
Wind Gusts 12.6 mph20.3 kmh 16.4 mph26.4 kmh - -
Humidity 61% 90% 61% 79%
Pressure 30.04 in1017.3 mb 30.04 in1017.3 mb 29.80 in1009.1 mb -
Hour Temp Dew Point Humidity Winds Wind Gusts Pressure Precip Precip Rate Daily Precip Total
12:00 PM 57.6°F14.2°C 44.2°F6.8°C 61% 6.0 mph WNW9.7 kmh WNW 12.6 mph20.3 kmh 30.04 in1017.3 mb 0.00 in0.0 mm 0.00 in0.0 mm 0.00 in0.0 mm
11:55 AM 57.6°F14.2°C 45.1°F7.3°C 63% 7.1 mph W11.4 kmh W 12.0 mph19.3 kmh 30.04 in1017.3 mb 0.00 in0.0 mm 0.00 in0.0 mm 0.00 in0.0 mm
11:50 AM 57.0°F13.9°C 44.5°F6.9°C 63% 5.7 mph WNW9.2 kmh WNW 10.9 mph17.5 kmh 30.04 in1017.3 mb 0.00 in0.0 mm 0.00 in0.0 mm 0.00 in0.0 mm
11:45 AM 56.1°F13.4°C 43.7°F6.5°C 63% 10.9 mph WSW17.5 kmh WSW 16.4 mph26.4 kmh 30.04 in1017.3 mb 0.00 in0.0 mm 0.00 in0.0 mm 0.00 in0.0 mm
11:40 AM 55.6°F13.1°C 43.2°F6.2°C 63% 6.8 mph W10.9 kmh W 16.4 mph26.4 kmh 30.04 in1017.3 mb 0.00 in0.0 mm 0.00 in0.0 mm 0.00 in0.0 mm
11:35 AM 55.4°F13.0°C 42.6°F5.9°C 62% 6.5 mph NW10.5 kmh NW 11.2 mph18.0 kmh 30.04 in1017.3 mb 0.00 in0.0 mm 0.00 in0.0 mm 0.00 in0.0 mm
11:30 AM 55.6°F13.1°C 42.8°F6.0°C 62% 3.5 mph NW5.6 kmh NW 11.2 mph18.0 kmh 30.04 in1017.3 mb 0.00 in0.0 mm 0.00 in0.0 mm 0.00 in0.0 mm
11:25 AM 55.8°F13.2°C 42.9°F6.1°C 62% 7.9 mph NW12.7 kmh NW 10.4 mph16.7 kmh 30.04 in1017.3 mb 0.00 in0.0 mm 0.00 in0.0 mm 0.00 in0.0 mm
11:20 AM 56.3°F13.5°C 43.9°F6.6°C 63% 10.4 mph W16.7 kmh W 10.4 mph16.7 kmh 30.01 in1016.3 mb 0.00 in0.0 mm 0.00 in0.0 mm 0.00 in0.0 mm
11:15 AM 56.8°F13.8°C 44.0°F6.7°C 62% 6.8 mph WNW10.9 kmh WNW 15.6 mph25.1 kmh 30.01 in1016.3 mb 0.00 in0.0 mm 0.00 in0.0 mm 0.00 in0.0 mm
11:10 AM 57.6°F14.2°C 45.5°F7.5°C 64% 8.7 mph NW14.0 kmh NW 15.6 mph25.1 kmh 30.01 in1016.3 mb 0.00 in0.0 mm 0.00 in0.0 mm 0.00 in0.0 mm
11:05 AM 57.9°F14.4°C 45.4°F7.4°C 63% 4.1 mph SW6.6 kmh SW 8.2 mph13.2 kmh 30.01 in1016.3 mb 0.00 in0.0 mm 0.00 in0.0 mm 0.00 in0.0 mm
11:00 AM 57.9°F14.4°C 45.4°F7.4°C 63% 6.5 mph SW10.5 kmh SW 9.0 mph14.5 kmh 30.01 in1016.3 mb 0.00 in0.0 mm 0.00 in0.0 mm 0.00 in0.0 mm
10:55 AM 58.1°F14.5°C 44.7°F7.1°C 61% 7.9 mph NW12.7 kmh NW 9.0 mph14.5 kmh 30.01 in1016.3 mb 0.00 in0.0 mm 0.00 in0.0 mm 0.00 in0.0 mm
10:50 AM 58.1°F14.5°C 45.6°F7.6°C 63% 3.3 mph NW5.3 kmh NW 11.7 mph18.8 kmh 30.01 in1016.3 mb 0.00 in0.0 mm 0.00 in0.0 mm 0.00 in0.0 mm
10:45 AM 58.1°F14.5°C 45.1°F7.3°C 62% 5.7 mph N9.2 kmh N 11.7 mph18.8 kmh 30.01 in1016.3 mb 0.00 in0.0 mm 0.00 in0.0 mm 0.00 in0.0 mm
10:40 AM 58.1°F14.5°C 46.4°F8.0°C 65% 11.7 mph N18.8 kmh N 14.5 mph23.3 kmh 30.01 in1016.3 mb 0.00 in0.0 mm 0.00 in0.0 mm 0.00 in0.0 mm
10:35 AM 57.9°F14.4°C 46.6°F8.1°C 66% 5.2 mph NNW8.4 kmh NNW 15.6 mph25.1 kmh 30.01 in1016.3 mb 0.00 in0.0 mm 0.00 in0.0 mm 0.00 in0.0 mm
10:30 AM 57.4°F14.1°C 46.5°F8.1°C 67% 4.9 mph WSW7.9 kmh WSW 15.6 mph25.1 kmh 30.01 in1016.3 mb 0.00 in0.0 mm 0.00 in0.0 mm 0.00 in0.0 mm
10:25 AM 57.4°F14.1°C 46.9°F8.3°C 68% 6.0 mph S9.7 kmh S 14.7 mph23.7 kmh 30.01 in1016.3 mb 0.00 in0.0 mm 0.00 in0.0 mm 0.00 in0.0 mm
10:20 AM 56.8°F13.8°C 46.8°F8.2°C 69% 9.0 mph NNW14.5 kmh NNW 13.9 mph22.4 kmh 30.01 in1016.3 mb 0.00 in0.0 mm 0.00 in0.0 mm 0.00 in0.0 mm
10:15 AM 56.5°F13.6°C 47.2°F8.4°C 71% 3.3 mph NW5.3 kmh NW 15.0 mph24.1 kmh 30.01 in1016.3 mb 0.00 in0.0 mm 0.00 in0.0 mm 0.00 in0.0 mm
10:10 AM 55.8°F13.2°C 46.1°F7.8°C 70% 6.8 mph W10.9 kmh W 15.0 mph24.1 kmh 30.01 in1016.3 mb 0.00 in0.0 mm 0.00 in0.0 mm 0.00 in0.0 mm
10:05 AM 55.4°F13.0°C 46.2°F7.9°C 71% 5.2 mph SW8.4 kmh SW 9.6 mph15.4 kmh 30.01 in1016.3 mb 0.00 in0.0 mm 0.00 in0.0 mm 0.00 in0.0 mm
10:00 AM 54.5°F12.5°C 45.3°F7.4°C 71% 8.7 mph W14.0 kmh W 15.6 mph25.1 kmh 30.01 in1016.3 mb 0.00 in0.0 mm 0.00 in0.0 mm 0.00 in0.0 mm
09:55 AM 54.0°F12.2°C 45.5°F7.5°C 73% 6.0 mph WNW9.7 kmh WNW 15.6 mph25.1 kmh 30.01 in1016.3 mb 0.00 in0.0 mm 0.00 in0.0 mm 0.00 in0.0 mm
09:50 AM 53.6°F12.0°C 45.2°F7.3°C 73% 6.8 mph NNE10.9 kmh NNE 8.7 mph14.0 kmh 30.01 in1016.3 mb 0.00 in0.0 mm 0.00 in0.0 mm 0.00 in0.0 mm
09:45 AM 53.4°F11.9°C 45.3°F7.4°C 74% 3.3 mph WSW5.3 kmh WSW 10.6 mph17.1 kmh 30.01 in1016.3 mb 0.00 in0.0 mm 0.00 in0.0 mm 0.00 in0.0 mm
09:40 AM 53.2°F11.8°C 44.8°F7.1°C 73% 6.8 mph SSW10.9 kmh SSW 10.6 mph17.1 kmh 30.01 in1016.3 mb 0.00 in0.0 mm 0.00 in0.0 mm 0.00 in0.0 mm
09:35 AM 53.2°F11.8°C 44.8°F7.1°C 73% 9.6 mph E15.4 kmh E 10.6 mph17.1 kmh 30.01 in1016.3 mb 0.00 in0.0 mm 0.00 in0.0 mm 0.00 in0.0 mm
09:30 AM 53.2°F11.8°C 45.5°F7.5°C 75% 8.7 mph WNW14.0 kmh WNW 9.3 mph15.0 kmh 30.01 in1016.3 mb 0.00 in0.0 mm 0.00 in0.0 mm 0.00 in0.0 mm
09:25 AM 53.1°F11.7°C 45.3°F7.4°C 75% 3.8 mph WSW6.1 kmh WSW 6.0 mph9.7 kmh 30.01 in1016.3 mb 0.00 in0.0 mm 0.00 in0.0 mm 0.00 in0.0 mm
09:20 AM 52.9°F11.6°C 45.2°F7.3°C 75% 4.4 mph NW7.1 kmh NW 9.0 mph14.5 kmh 30.01 in1016.3 mb 0.00 in0.0 mm 0.00 in0.0 mm 0.00 in0.0 mm
09:15 AM 52.2°F11.2°C 44.5°F6.9°C 75% 5.2 mph WSW8.4 kmh WSW 10.6 mph17.1 kmh 30.01 in1016.3 mb 0.00 in0.0 mm 0.00 in0.0 mm 0.00 in0.0 mm
09:10 AM 51.6°F10.9°C 44.3°F6.8°C 76% 3.3 mph SSW5.3 kmh SSW 12.0 mph19.3 kmh 30.01 in1016.3 mb 0.00 in0.0 mm 0.00 in0.0 mm 0.00 in0.0 mm
09:05 AM 50.7°F10.4°C 43.4°F6.3°C 76% 7.1 mph SW11.4 kmh SW 12.0 mph19.3 kmh 29.98 in1015.2 mb 0.00 in0.0 mm 0.00 in0.0 mm 0.00 in0.0 mm
09:00 AM 50.5°F10.3°C 43.3°F6.3°C 76% 4.6 mph W7.4 kmh W 9.3 mph15.0 kmh 29.98 in1015.2 mb 0.00 in0.0 mm 0.00 in0.0 mm 0.00 in0.0 mm
08:55 AM 50.7°F10.4°C 43.4°F6.3°C 76% 6.0 mph SSW9.7 kmh SSW 7.1 mph11.4 kmh 29.98 in1015.2 mb 0.00 in0.0 mm 0.00 in0.0 mm 0.00 in0.0 mm
08:50 AM 50.9°F10.5°C 43.9°F6.6°C 77% 3.5 mph SSW5.6 kmh SSW 9.3 mph15.0 kmh 29.98 in1015.2 mb 0.00 in0.0 mm 0.00 in0.0 mm 0.00 in0.0 mm
08:45 AM 50.9°F10.5°C 43.6°F6.4°C 76% 4.1 mph WSW6.6 kmh WSW 9.3 mph15.0 kmh 29.98 in1015.2 mb 0.00 in0.0 mm 0.00 in0.0 mm 0.00 in0.0 mm
08:40 AM 50.9°F10.5°C 43.6°F6.4°C 76% 3.3 mph W5.3 kmh W 12.6 mph20.3 kmh 29.98 in1015.2 mb 0.00 in0.0 mm 0.00 in0.0 mm 0.00 in0.0 mm
08:35 AM 50.9°F10.5°C 43.6°F6.4°C 76% 7.4 mph WNW11.9 kmh WNW 12.6 mph20.3 kmh 29.98 in1015.2 mb 0.00 in0.0 mm 0.00 in0.0 mm 0.00 in0.0 mm
08:30 AM 50.9°F10.5°C 43.6°F6.4°C 76% 5.2 mph NW8.4 kmh NW 12.0 mph19.3 kmh 29.98 in1015.2 mb 0.00 in0.0 mm 0.00 in0.0 mm 0.00 in0.0 mm
08:25 AM 50.9°F10.5°C 43.9°F6.6°C 77% 3.8 mph NW6.1 kmh NW 8.5 mph13.7 kmh 29.98 in1015.2 mb 0.00 in0.0 mm 0.00 in0.0 mm 0.00 in0.0 mm
08:20 AM 51.1°F10.6°C 44.1°F6.7°C 77% 7.9 mph NW12.7 kmh NW 9.0 mph14.5 kmh 29.98 in1015.2 mb 0.00 in0.0 mm 0.00 in0.0 mm 0.00 in0.0 mm
08:15 AM 51.1°F10.6°C 44.1°F6.7°C 77% 7.6 mph N12.2 kmh N 9.0 mph14.5 kmh 29.98 in1015.2 mb 0.00 in0.0 mm 0.00 in0.0 mm 0.00 in0.0 mm
08:10 AM 51.1°F10.6°C 44.5°F6.9°C 78% 4.4 mph SE7.1 kmh SE 9.3 mph15.0 kmh 29.98 in1015.2 mb 0.00 in0.0 mm 0.00 in0.0 mm 0.00 in0.0 mm
08:05 AM 51.1°F10.6°C 44.1°F6.7°C 77% 8.5 mph S13.7 kmh S 9.3 mph15.0 kmh 29.98 in1015.2 mb 0.00 in0.0 mm 0.00 in0.0 mm 0.00 in0.0 mm
08:00 AM 50.9°F10.5°C 44.3°F6.8°C 78% 3.3 mph WSW5.3 kmh WSW 7.4 mph11.9 kmh 29.98 in1015.2 mb 0.00 in0.0 mm 0.00 in0.0 mm 0.00 in0.0 mm
07:55 AM 50.7°F10.4°C 44.4°F6.9°C 79% 5.7 mph WNW9.2 kmh WNW 10.4 mph16.7 kmh 29.98 in1015.2 mb 0.00 in0.0 mm 0.00 in0.0 mm 0.00 in0.0 mm
07:50 AM 50.4°F10.2°C 44.1°F6.7°C 79% 4.1 mph WNW6.6 kmh WNW 10.4 mph16.7 kmh 29.98 in1015.2 mb 0.00 in0.0 mm 0.00 in0.0 mm 0.00 in0.0 mm
07:45 AM 50.0°F10.0°C 43.7°F6.5°C 79% 7.6 mph WSW12.2 kmh WSW 7.6 mph12.2 kmh 29.98 in1015.2 mb 0.00 in0.0 mm 0.00 in0.0 mm 0.00 in0.0 mm
07:40 AM 49.6°F9.8°C 43.7°F6.5°C 80% 4.4 mph WSW7.1 kmh WSW 9.0 mph14.5 kmh 29.98 in1015.2 mb 0.00 in0.0 mm 0.00 in0.0 mm 0.00 in0.0 mm
07:35 AM 49.5°F9.7°C 43.5°F6.4°C 80% 3.8 mph WNW6.1 kmh WNW 9.0 mph14.5 kmh 29.95 in1014.2 mb 0.00 in0.0 mm 0.00 in0.0 mm 0.00 in0.0 mm
07:30 AM 49.3°F9.6°C 43.4°F6.3°C 80% 5.2 mph WSW8.4 kmh WSW 8.5 mph13.7 kmh 29.95 in1014.2 mb 0.00 in0.0 mm 0.00 in0.0 mm 0.00 in0.0 mm
07:25 AM 48.9°F9.4°C 43.0°F6.1°C 80% 3.5 mph SW5.6 kmh SW 7.4 mph11.9 kmh 29.95 in1014.2 mb 0.00 in0.0 mm 0.00 in0.0 mm 0.00 in0.0 mm
07:20 AM 48.7°F9.3°C 42.8°F6.0°C 80% 4.9 mph W7.9 kmh W 7.9 mph12.7 kmh 29.95 in1014.2 mb 0.00 in0.0 mm 0.00 in0.0 mm 0.00 in0.0 mm
07:15 AM 48.7°F9.3°C 42.8°F6.0°C 80% 3.8 mph SW6.1 kmh SW 9.3 mph15.0 kmh 29.95 in1014.2 mb 0.00 in0.0 mm 0.00 in0.0 mm 0.00 in0.0 mm
07:10 AM 48.6°F9.2°C 42.7°F5.9°C 80% 5.5 mph SW8.9 kmh SW 9.3 mph15.0 kmh 29.95 in1014.2 mb 0.00 in0.0 mm 0.00 in0.0 mm 0.00 in0.0 mm
07:05 AM 48.4°F9.1°C 42.5°F5.8°C 80% 7.1 mph WNW11.4 kmh WNW 7.6 mph12.2 kmh 29.95 in1014.2 mb 0.00 in0.0 mm 0.00 in0.0 mm 0.00 in0.0 mm
07:00 AM 48.4°F9.1°C 42.5°F5.8°C 80% 4.9 mph N7.9 kmh N 6.8 mph10.9 kmh 29.95 in1014.2 mb 0.00 in0.0 mm 0.00 in0.0 mm 0.00 in0.0 mm
06:55 AM 48.6°F9.2°C 42.7°F5.9°C 80% 4.4 mph ESE7.1 kmh ESE 9.6 mph15.4 kmh 29.95 in1014.2 mb 0.00 in0.0 mm 0.00 in0.0 mm 0.00 in0.0 mm
06:50 AM 48.6°F9.2°C 42.7°F5.9°C 80% 5.7 mph SSE9.2 kmh SSE 9.6 mph15.4 kmh 29.95 in1014.2 mb 0.00 in0.0 mm 0.00 in0.0 mm 0.00 in0.0 mm
06:45 AM 48.6°F9.2°C 42.7°F5.9°C 80% 3.5 mph S5.6 kmh S 12.6 mph20.3 kmh 29.95 in1014.2 mb 0.00 in0.0 mm 0.00 in0.0 mm 0.00 in0.0 mm
06:40 AM 48.6°F9.2°C 42.7°F5.9°C 80% 12.6 mph SSW20.3 kmh SSW 12.6 mph20.3 kmh 29.95 in1014.2 mb 0.00 in0.0 mm 0.00 in0.0 mm 0.00 in0.0 mm
06:35 AM 48.7°F9.3°C 42.8°F6.0°C 80% 4.6 mph SSW7.4 kmh SSW 9.3 mph15.0 kmh 29.95 in1014.2 mb 0.00 in0.0 mm 0.00 in0.0 mm 0.00 in0.0 mm
06:30 AM 48.7°F9.3°C 42.8°F6.0°C 80% 7.1 mph SW11.4 kmh SW 7.4 mph11.9 kmh 29.95 in1014.2 mb 0.00 in0.0 mm 0.00 in0.0 mm 0.00 in0.0 mm
06:25 AM 48.9°F9.4°C 43.0°F6.1°C 80% 6.5 mph WSW10.5 kmh WSW 7.9 mph12.7 kmh 29.95 in1014.2 mb 0.00 in0.0 mm 0.00 in0.0 mm 0.00 in0.0 mm
06:20 AM 48.9°F9.4°C 43.0°F6.1°C 80% 7.9 mph WSW12.7 kmh WSW 7.9 mph12.7 kmh 29.95 in1014.2 mb 0.00 in0.0 mm 0.00 in0.0 mm 0.00 in0.0 mm
06:15 AM 48.9°F9.4°C 43.3°F6.3°C 81% 3.8 mph NNW6.1 kmh NNW 7.1 mph11.4 kmh 29.95 in1014.2 mb 0.00 in0.0 mm 0.00 in0.0 mm 0.00 in0.0 mm
06:10 AM 49.1°F9.5°C 43.5°F6.4°C 81% 3.3 mph ESE5.3 kmh ESE 7.1 mph11.4 kmh 29.95 in1014.2 mb 0.00 in0.0 mm 0.00 in0.0 mm 0.00 in0.0 mm
06:05 AM 49.3°F9.6°C 43.7°F6.5°C 81% 4.4 mph SE7.1 kmh SE 7.9 mph12.7 kmh 29.95 in1014.2 mb 0.00 in0.0 mm 0.00 in0.0 mm 0.00 in0.0 mm
06:00 AM 49.5°F9.7°C 43.9°F6.6°C 81% 3.5 mph S5.6 kmh S 7.9 mph12.7 kmh 29.95 in1014.2 mb 0.00 in0.0 mm 0.00 in0.0 mm 0.00 in0.0 mm
05:55 AM 49.5°F9.7°C 43.9°F6.6°C 81% 6.5 mph SW10.5 kmh SW 9.3 mph15.0 kmh 29.95 in1014.2 mb 0.00 in0.0 mm 0.00 in0.0 mm 0.00 in0.0 mm
05:50 AM 49.6°F9.8°C 44.0°F6.7°C 81% 4.1 mph WSW6.6 kmh WSW 10.9 mph17.5 kmh 29.92 in1013.2 mb 0.00 in0.0 mm 0.00 in0.0 mm 0.00 in0.0 mm
05:45 AM 49.6°F9.8°C 44.0°F6.7°C 81% 10.9 mph W17.5 kmh W 10.9 mph17.5 kmh 29.92 in1013.2 mb 0.00 in0.0 mm 0.00 in0.0 mm 0.00 in0.0 mm
05:40 AM 49.8°F9.9°C 44.2°F6.8°C 81% 3.8 mph W6.1 kmh W 9.0 mph14.5 kmh 29.92 in1013.2 mb 0.00 in0.0 mm 0.00 in0.0 mm 0.00 in0.0 mm
05:35 AM 50.0°F10.0°C 44.4°F6.9°C 81% 4.1 mph S6.6 kmh S 11.5 mph18.5 kmh 29.92 in1013.2 mb 0.00 in0.0 mm 0.00 in0.0 mm 0.00 in0.0 mm
05:30 AM 50.0°F10.0°C 44.4°F6.9°C 81% 4.6 mph SSE7.4 kmh SSE 11.5 mph18.5 kmh 29.92 in1013.2 mb 0.00 in0.0 mm 0.00 in0.0 mm 0.00 in0.0 mm
05:25 AM 50.0°F10.0°C 44.4°F6.9°C 81% 7.6 mph SW12.2 kmh SW 7.6 mph12.2 kmh 29.92 in1013.2 mb 0.00 in0.0 mm 0.00 in0.0 mm 0.00 in0.0 mm
05:20 AM 50.0°F10.0°C 44.4°F6.9°C 81% 4.9 mph WSW7.9 kmh WSW 9.0 mph14.5 kmh 29.92 in1013.2 mb 0.00 in0.0 mm 0.00 in0.0 mm 0.00 in0.0 mm
05:15 AM 50.2°F10.1°C 44.9°F7.2°C 82% 9.0 mph W14.5 kmh W 10.4 mph16.7 kmh 29.92 in1013.2 mb 0.00 in0.0 mm 0.00 in0.0 mm 0.00 in0.0 mm
05:10 AM 50.2°F10.1°C 44.9°F7.2°C 82% 3.0 mph WNW4.8 kmh WNW 10.4 mph16.7 kmh 29.92 in1013.2 mb 0.00 in0.0 mm 0.00 in0.0 mm 0.00 in0.0 mm
05:05 AM 50.4°F10.2°C 44.7°F7.1°C 81% 4.9 mph WSW7.9 kmh WSW 9.8 mph15.8 kmh 29.92 in1013.2 mb 0.00 in0.0 mm 0.00 in0.0 mm 0.00 in0.0 mm
05:00 AM 50.4°F10.2°C 44.7°F7.1°C 81% 4.1 mph S6.6 kmh S 6.5 mph10.5 kmh 29.92 in1013.2 mb 0.00 in0.0 mm 0.00 in0.0 mm 0.00 in0.0 mm
04:55 AM 50.5°F10.3°C 45.2°F7.3°C 82% 3.8 mph SSW6.1 kmh SSW 11.2 mph18.0 kmh 29.92 in1013.2 mb 0.00 in0.0 mm 0.00 in0.0 mm 0.00 in0.0 mm
04:50 AM 50.5°F10.3°C 45.2°F7.3°C 82% 6.5 mph SW10.5 kmh SW 11.2 mph18.0 kmh 29.92 in1013.2 mb 0.00 in0.0 mm 0.00 in0.0 mm 0.00 in0.0 mm
04:45 AM 50.7°F10.4°C 45.4°F7.4°C 82% 3.0 mph SSW4.8 kmh SSW 6.5 mph10.5 kmh 29.92 in1013.2 mb 0.00 in0.0 mm 0.00 in0.0 mm 0.00 in0.0 mm
04:40 AM 50.9°F10.5°C 45.6°F7.6°C 82% 4.1 mph SW6.6 kmh SW 6.0 mph9.7 kmh 29.92 in1013.2 mb 0.00 in0.0 mm 0.00 in0.0 mm 0.00 in0.0 mm
04:35 AM 51.1°F10.6°C 46.1°F7.8°C 83% 3.5 mph WSW5.6 kmh WSW 6.5 mph10.5 kmh 29.89 in1012.2 mb 0.00 in0.0 mm 0.00 in0.0 mm 0.00 in0.0 mm
04:30 AM 51.1°F10.6°C 46.1°F7.8°C 83% 3.5 mph N5.6 kmh N 15.3 mph24.6 kmh 29.89 in1012.2 mb 0.00 in0.0 mm 0.00 in0.0 mm 0.00 in0.0 mm
04:25 AM 51.1°F10.6°C 46.1°F7.8°C 83% 3.0 mph E4.8 kmh E 15.3 mph24.6 kmh 29.89 in1012.2 mb 0.00 in0.0 mm 0.00 in0.0 mm 0.00 in0.0 mm
04:20 AM 51.1°F10.6°C 46.1°F7.8°C 83% 3.8 mph SSW6.1 kmh SSW 7.1 mph11.4 kmh 29.89 in1012.2 mb 0.00 in0.0 mm 0.00 in0.0 mm 0.00 in0.0 mm
04:15 AM 51.3°F10.7°C 46.6°F8.1°C 84% 5.7 mph SW9.2 kmh SW 9.3 mph15.0 kmh 29.89 in1012.2 mb 0.00 in0.0 mm 0.00 in0.0 mm 0.00 in0.0 mm
04:10 AM 51.3°F10.7°C 46.6°F8.1°C 84% 2.5 mph WSW4.0 kmh WSW 9.8 mph15.8 kmh 29.89 in1012.2 mb 0.00 in0.0 mm 0.00 in0.0 mm 0.00 in0.0 mm
04:05 AM 51.4°F10.8°C 46.8°F8.2°C 84% 7.4 mph W11.9 kmh W 9.8 mph15.8 kmh 29.89 in1012.2 mb 0.00 in0.0 mm 0.00 in0.0 mm 0.00 in0.0 mm
04:00 AM 51.4°F10.8°C 46.8°F8.2°C 84% 3.8 mph W6.1 kmh W 8.5 mph13.7 kmh 29.89 in1012.2 mb 0.00 in0.0 mm 0.00 in0.0 mm 0.00 in0.0 mm
03:55 AM 51.4°F10.8°C 46.8°F8.2°C 84% 7.9 mph SW12.7 kmh SW 8.7 mph14.0 kmh 29.89 in1012.2 mb 0.00 in0.0 mm 0.00 in0.0 mm 0.00 in0.0 mm
03:50 AM 51.6°F10.9°C 46.9°F8.3°C 84% 4.6 mph WNW7.4 kmh WNW 10.6 mph17.1 kmh 29.89 in1012.2 mb 0.00 in0.0 mm 0.00 in0.0 mm 0.00 in0.0 mm
03:45 AM 51.6°F10.9°C 46.9°F8.3°C 84% 3.5 mph NW5.6 kmh NW 10.6 mph17.1 kmh 29.89 in1012.2 mb 0.00 in0.0 mm 0.00 in0.0 mm 0.00 in0.0 mm
03:40 AM 51.8°F11.0°C 47.1°F8.4°C 84% 3.5 mph NW5.6 kmh NW 11.7 mph18.8 kmh 29.89 in1012.2 mb 0.00 in0.0 mm 0.00 in0.0 mm 0.00 in0.0 mm
03:35 AM 52.0°F11.1°C 47.3°F8.5°C 84% 6.8 mph NNW10.9 kmh NNW 11.7 mph18.8 kmh 29.89 in1012.2 mb 0.00 in0.0 mm 0.00 in0.0 mm 0.00 in0.0 mm
03:30 AM 52.0°F11.1°C 47.3°F8.5°C 84% 5.7 mph N9.2 kmh N 6.5 mph10.5 kmh 29.89 in1012.2 mb 0.00 in0.0 mm 0.00 in0.0 mm 0.00 in0.0 mm
03:25 AM 52.2°F11.2°C 47.5°F8.6°C 84% 4.6 mph WNW7.4 kmh WNW 6.0 mph9.7 kmh 29.89 in1012.2 mb 0.00 in0.0 mm 0.00 in0.0 mm 0.00 in0.0 mm
03:20 AM 52.2°F11.2°C 47.8°F8.8°C 85% 3.8 mph W6.1 kmh W 6.5 mph10.5 kmh 29.86 in1011.2 mb 0.00 in0.0 mm 0.00 in0.0 mm 0.00 in0.0 mm
03:15 AM 52.2°F11.2°C 47.8°F8.8°C 85% 5.2 mph WSW8.4 kmh WSW 6.5 mph10.5 kmh 29.86 in1011.2 mb 0.00 in0.0 mm 0.00 in0.0 mm 0.00 in0.0 mm
03:10 AM 52.2°F11.2°C 47.8°F8.8°C 85% 5.7 mph WNW9.2 kmh WNW 9.0 mph14.5 kmh 29.86 in1011.2 mb 0.00 in0.0 mm 0.00 in0.0 mm 0.00 in0.0 mm
03:05 AM 52.2°F11.2°C 47.8°F8.8°C 85% 3.3 mph NNW5.3 kmh NNW 9.0 mph14.5 kmh 29.86 in1011.2 mb 0.00 in0.0 mm 0.00 in0.0 mm 0.00 in0.0 mm
03:00 AM 52.2°F11.2°C 48.1°F8.9°C 86% 6.5 mph NW10.5 kmh NW 15.0 mph24.1 kmh 29.86 in1011.2 mb 0.00 in0.0 mm 0.00 in0.0 mm 0.00 in0.0 mm
02:55 AM 52.2°F11.2°C 48.1°F8.9°C 86% 3.3 mph WNW5.3 kmh WNW 15.0 mph24.1 kmh 29.86 in1011.2 mb 0.00 in0.0 mm 0.00 in0.0 mm 0.00 in0.0 mm
02:50 AM 52.2°F11.2°C 48.4°F9.1°C 87% 8.5 mph NW13.7 kmh NW 15.0 mph24.1 kmh 29.86 in1011.2 mb 0.00 in0.0 mm 0.00 in0.0 mm 0.00 in0.0 mm
02:45 AM 52.0°F11.1°C 48.2°F9.0°C 87% 3.8 mph SE6.1 kmh SE 8.2 mph13.2 kmh 29.86 in1011.2 mb 0.00 in0.0 mm 0.00 in0.0 mm 0.00 in0.0 mm
02:40 AM 52.0°F11.1°C 48.5°F9.2°C 88% 4.4 mph WSW7.1 kmh WSW 8.2 mph13.2 kmh 29.86 in1011.2 mb 0.00 in0.0 mm 0.00 in0.0 mm 0.00 in0.0 mm
02:35 AM 52.0°F11.1°C 48.8°F9.3°C 89% 8.2 mph WSW13.2 kmh WSW 8.2 mph13.2 kmh 29.86 in1011.2 mb 0.00 in0.0 mm 0.00 in0.0 mm 0.00 in0.0 mm
02:30 AM 51.8°F11.0°C 48.7°F9.3°C 89% 3.3 mph SSW5.3 kmh SSW 4.9 mph7.9 kmh 29.86 in1011.2 mb 0.00 in0.0 mm 0.00 in0.0 mm 0.00 in0.0 mm
02:25 AM 51.8°F11.0°C 49.0°F9.4°C 90% 1.4 mph SE2.3 kmh SE 6.8 mph10.9 kmh 29.86 in1011.2 mb 0.00 in0.0 mm 0.00 in0.0 mm 0.00 in0.0 mm
02:20 AM 51.8°F11.0°C 49.0°F9.4°C 90% 3.0 mph WNW4.8 kmh WNW 11.5 mph18.5 kmh 29.83 in1010.2 mb 0.00 in0.0 mm 0.00 in0.0 mm 0.00 in0.0 mm
02:15 AM 52.0°F11.1°C 49.1°F9.5°C 90% 2.5 mph W4.0 kmh W 11.5 mph18.5 kmh 29.83 in1010.2 mb 0.00 in0.0 mm 0.00 in0.0 mm 0.00 in0.0 mm
02:10 AM 52.0°F11.1°C 48.8°F9.3°C 89% 7.9 mph W12.7 kmh W 12.6 mph20.3 kmh 29.83 in1010.2 mb 0.00 in0.0 mm 0.00 in0.0 mm 0.00 in0.0 mm
02:05 AM 52.2°F11.2°C 48.7°F9.3°C 88% 11.2 mph WSW18.0 kmh WSW 12.6 mph20.3 kmh 29.83 in1010.2 mb 0.00 in0.0 mm 0.00 in0.0 mm 0.00 in0.0 mm
02:00 AM 52.2°F11.2°C 48.7°F9.3°C 88% 4.1 mph S6.6 kmh S 9.3 mph15.0 kmh 29.83 in1010.2 mb 0.00 in0.0 mm 0.00 in0.0 mm 0.00 in0.0 mm
01:55 AM 52.2°F11.2°C 49.0°F9.4°C 89% 9.3 mph WSW15.0 kmh WSW 9.3 mph15.0 kmh 29.83 in1010.2 mb 0.00 in0.0 mm 0.00 in0.0 mm 0.00 in0.0 mm
01:50 AM 52.2°F11.2°C 49.0°F9.4°C 89% 2.5 mph NE4.0 kmh NE 6.5 mph10.5 kmh 29.83 in1010.2 mb 0.00 in0.0 mm 0.00 in0.0 mm 0.00 in0.0 mm
01:45 AM 52.3°F11.3°C 49.2°F9.6°C 89% 4.4 mph ENE7.1 kmh ENE 5.2 mph8.4 kmh 29.83 in1010.2 mb 0.00 in0.0 mm 0.00 in0.0 mm 0.00 in0.0 mm
01:40 AM 52.5°F11.4°C 49.1°F9.5°C 88% 3.3 mph NW5.3 kmh NW 4.4 mph7.1 kmh 29.83 in1010.2 mb 0.00 in0.0 mm 0.00 in0.0 mm 0.00 in0.0 mm
01:35 AM 52.7°F11.5°C 49.2°F9.6°C 88% 3.3 mph SW5.3 kmh SW 6.0 mph9.7 kmh 29.83 in1010.2 mb 0.00 in0.0 mm 0.00 in0.0 mm 0.00 in0.0 mm
01:30 AM 53.1°F11.7°C 49.0°F9.4°C 86% 6.0 mph SW9.7 kmh SW 10.4 mph16.7 kmh 29.83 in1010.2 mb 0.00 in0.0 mm 0.00 in0.0 mm 0.00 in0.0 mm
01:25 AM 53.2°F11.8°C 49.2°F9.6°C 86% 4.1 mph SW6.6 kmh SW 10.4 mph16.7 kmh 29.83 in1010.2 mb 0.00 in0.0 mm 0.00 in0.0 mm 0.00 in0.0 mm
01:20 AM 53.2°F11.8°C 48.8°F9.3°C 85% 5.2 mph S8.4 kmh S 7.1 mph11.4 kmh 29.83 in1010.2 mb 0.00 in0.0 mm 0.00 in0.0 mm 0.00 in0.0 mm
01:15 AM 53.2°F11.8°C 48.8°F9.3°C 85% 3.3 mph W5.3 kmh W 4.9 mph7.9 kmh 29.83 in1010.2 mb 0.00 in0.0 mm 0.00 in0.0 mm 0.00 in0.0 mm
01:10 AM 53.2°F11.8°C 48.8°F9.3°C 85% 4.1 mph W6.6 kmh W 5.7 mph9.2 kmh 29.83 in1010.2 mb 0.00 in0.0 mm 0.00 in0.0 mm 0.00 in0.0 mm
01:05 AM 53.2°F11.8°C 48.8°F9.3°C 85% 4.6 mph SSW7.4 kmh SSW 6.8 mph10.9 kmh 29.80 in1009.1 mb 0.00 in0.0 mm 0.00 in0.0 mm 0.00 in0.0 mm
01:00 AM 53.2°F11.8°C 48.8°F9.3°C 85% 4.6 mph SSW7.4 kmh SSW 8.5 mph13.7 kmh 29.80 in1009.1 mb 0.00 in0.0 mm 0.00 in0.0 mm 0.00 in0.0 mm
12:55 AM 53.4°F11.9°C 49.0°F9.4°C 85% 6.0 mph SSW9.7 kmh SSW 8.5 mph13.7 kmh 29.80 in1009.1 mb 0.00 in0.0 mm 0.00 in0.0 mm 0.00 in0.0 mm
12:50 AM 53.2°F11.8°C 48.8°F9.3°C 85% 3.5 mph SSW5.6 kmh SSW 10.6 mph17.1 kmh 29.80 in1009.1 mb 0.00 in0.0 mm 0.00 in0.0 mm 0.00 in0.0 mm
12:45 AM 53.4°F11.9°C 49.0°F9.4°C 85% 6.8 mph SSW10.9 kmh SSW 10.6 mph17.1 kmh 29.80 in1009.1 mb 0.00 in0.0 mm 0.00 in0.0 mm 0.00 in0.0 mm
12:40 AM 53.4°F11.9°C 49.0°F9.4°C 85% 3.8 mph SW6.1 kmh SW 7.4 mph11.9 kmh 29.80 in1009.1 mb 0.00 in0.0 mm 0.00 in0.0 mm 0.00 in0.0 mm
12:35 AM 53.6°F12.0°C 49.2°F9.6°C 85% 3.0 mph SSW4.8 kmh SSW 9.0 mph14.5 kmh 29.80 in1009.1 mb 0.00 in0.0 mm 0.00 in0.0 mm 0.00 in0.0 mm
12:30 AM 53.6°F12.0°C 49.2°F9.6°C 85% 5.2 mph SW8.4 kmh SW 9.0 mph14.5 kmh 29.80 in1009.1 mb 0.00 in0.0 mm 0.00 in0.0 mm 0.00 in0.0 mm
12:25 AM 53.6°F12.0°C 49.2°F9.6°C 85% 6.0 mph WSW9.7 kmh WSW 6.0 mph9.7 kmh 29.80 in1009.1 mb 0.00 in0.0 mm 0.00 in0.0 mm 0.00 in0.0 mm
12:20 AM 53.6°F12.0°C 49.2°F9.6°C 85% 5.2 mph WSW8.4 kmh WSW 9.8 mph15.8 kmh 29.80 in1009.1 mb 0.00 in0.0 mm 0.00 in0.0 mm 0.00 in0.0 mm
12:15 AM 53.6°F12.0°C 49.5°F9.7°C 86% 4.1 mph S6.6 kmh S 9.8 mph15.8 kmh 29.80 in1009.1 mb 0.00 in0.0 mm 0.00 in0.0 mm 0.00 in0.0 mm
12:10 AM 53.6°F12.0°C 49.2°F9.6°C 85% 4.1 mph SW6.6 kmh SW 7.9 mph12.7 kmh 29.80 in1009.1 mb 0.00 in0.0 mm 0.00 in0.0 mm 0.00 in0.0 mm
12:05 AM 53.6°F12.0°C 49.2°F9.6°C 85% 5.2 mph W8.4 kmh W 7.4 mph11.9 kmh 29.80 in1009.1 mb 0.00 in0.0 mm 0.00 in0.0 mm 0.00 in0.0 mm
12:00 AM 53.6°F12.0°C 49.5°F9.7°C 86% 7.4 mph W11.9 kmh W 11.7 mph18.8 kmh 29.80 in1009.1 mb 0.00 in0.0 mm 0.00 in0.0 mm 0.00 in0.0 mm